createdAt,value
2016-06-30T00:00:15.611Z,1009.08
2016-06-30T00:01:15.604Z,1009.1
2016-06-30T00:02:15.611Z,1009.07
2016-06-30T00:03:15.597Z,1009.08
2016-06-30T00:04:15.597Z,1009.09
2016-06-30T00:05:15.595Z,1009.07
2016-06-30T00:06:15.589Z,1009.1
2016-06-30T00:07:15.593Z,1009.1
2016-06-30T00:08:15.590Z,1009.1
2016-06-30T00:09:15.586Z,1009.1
2016-06-30T00:10:15.583Z,1009.1
2016-06-30T00:11:15.584Z,1009.11
2016-06-30T00:12:16.115Z,1009.07
2016-06-30T00:13:15.577Z,1009.09
2016-06-30T00:14:15.597Z,1009.04
2016-06-30T00:15:15.577Z,1009.08
2016-06-30T00:16:15.575Z,1009.07
2016-06-30T00:17:15.569Z,1009.08
2016-06-30T00:18:15.574Z,1009.03
2016-06-30T00:19:15.566Z,1009.01
2016-06-30T00:20:15.562Z,1008.99
2016-06-30T00:21:16.040Z,1009.02
2016-06-30T00:22:15.619Z,1009.02
2016-06-30T00:23:15.554Z,1008.97
2016-06-30T00:24:15.554Z,1009
2016-06-30T00:25:15.550Z,1009.01
2016-06-30T00:26:15.548Z,1009.03
2016-06-30T00:27:15.547Z,1009.03
2016-06-30T00:28:15.542Z,1009.05
2016-06-30T00:29:15.541Z,1009.09
2016-06-30T00:30:15.535Z,1009.08
2016-06-30T00:31:15.539Z,1009.09
2016-06-30T00:32:15.532Z,1009.06
2016-06-30T00:33:15.543Z,1009.08
2016-06-30T00:34:15.525Z,1009.05
2016-06-30T00:35:15.522Z,1009.06
2016-06-30T00:36:15.519Z,1009.06
2016-06-30T00:37:15.518Z,1009.11
2016-06-30T00:38:15.515Z,1009.07
2016-06-30T00:39:15.514Z,1009.1
2016-06-30T00:40:15.511Z,1009.11
2016-06-30T00:41:15.610Z,1009.08
2016-06-30T00:42:15.505Z,1009.1
2016-06-30T00:43:15.502Z,1009.1
2016-06-30T00:44:15.500Z,1009.07
2016-06-30T00:45:16.061Z,1009.07
2016-06-30T00:46:15.495Z,1009.02
2016-06-30T00:47:15.496Z,1009.03
2016-06-30T00:48:15.491Z,1009.05
2016-06-30T00:49:15.485Z,1009.05
2016-06-30T00:50:15.485Z,1009.02
2016-06-30T00:51:15.635Z,1009.05
2016-06-30T00:52:15.534Z,1009.04
2016-06-30T00:53:15.474Z,1009.02
2016-06-30T00:54:15.631Z,1009.02
2016-06-30T00:55:15.671Z,1009.04
2016-06-30T00:56:15.465Z,1009.06
2016-06-30T00:57:15.466Z,1009.07
2016-06-30T00:58:15.469Z,1009.07
2016-06-30T00:59:15.461Z,1009.06
2016-06-30T01:00:15.458Z,1009.08
2016-06-30T01:01:15.455Z,1009
2016-06-30T01:02:15.448Z,1008.99
2016-06-30T01:03:15.448Z,1008.97
2016-06-30T01:04:15.479Z,1008.99
2016-06-30T01:05:15.446Z,1009.02
2016-06-30T01:06:15.440Z,1008.99
2016-06-30T01:07:15.473Z,1008.99
2016-06-30T01:08:15.434Z,1008.96
2016-06-30T01:09:15.429Z,1008.91
2016-06-30T01:10:15.427Z,1008.95
2016-06-30T01:11:15.428Z,1008.92
2016-06-30T01:12:15.426Z,1008.94
2016-06-30T01:13:15.453Z,1008.93
2016-06-30T01:14:15.423Z,1008.99
2016-06-30T01:15:15.415Z,1008.96
2016-06-30T01:16:15.409Z,1009
2016-06-30T01:17:15.414Z,1009
2016-06-30T01:18:15.411Z,1008.98
2016-06-30T01:19:15.414Z,1009.01
2016-06-30T01:20:15.399Z,1008.98
2016-06-30T01:21:15.399Z,1008.99
2016-06-30T01:22:15.395Z,1008.98
2016-06-30T01:23:15.392Z,1008.95
2016-06-30T01:24:15.384Z,1008.98
2016-06-30T01:25:15.384Z,1008.98
2016-06-30T01:26:15.381Z,1008.95
2016-06-30T01:27:15.378Z,1008.9
2016-06-30T01:28:15.378Z,1008.94
2016-06-30T01:29:15.373Z,1008.91
2016-06-30T01:30:15.373Z,1008.88
2016-06-30T01:31:15.366Z,1008.9
2016-06-30T01:32:15.365Z,1008.87
2016-06-30T01:33:15.357Z,1008.83
2016-06-30T01:34:15.359Z,1008.8
2016-06-30T01:35:16.694Z,1008.84
2016-06-30T01:36:15.368Z,1008.81
2016-06-30T01:37:16.131Z,1008.81
2016-06-30T01:38:15.349Z,1008.79
2016-06-30T01:39:15.341Z,1008.8
2016-06-30T01:40:15.339Z,1008.79
2016-06-30T01:41:15.338Z,1008.83
2016-06-30T01:42:15.337Z,1008.83
2016-06-30T01:43:15.346Z,1008.84
2016-06-30T01:44:15.328Z,1008.85
2016-06-30T01:45:15.342Z,1008.83
2016-06-30T01:46:15.353Z,1008.76
2016-06-30T01:47:15.322Z,1008.81
2016-06-30T01:48:15.314Z,1008.78
2016-06-30T01:49:15.312Z,1008.81
2016-06-30T01:50:15.318Z,1008.83
2016-06-30T01:51:15.307Z,1008.84
2016-06-30T01:52:15.309Z,1008.85
2016-06-30T01:53:15.302Z,1008.86
2016-06-30T01:54:15.301Z,1008.82
2016-06-30T01:55:15.297Z,1008.86
2016-06-30T01:56:15.303Z,1008.85
2016-06-30T01:57:15.298Z,1008.87
2016-06-30T01:58:15.288Z,1008.89
2016-06-30T01:59:15.278Z,1008.9
2016-06-30T02:00:15.283Z,1008.91
2016-06-30T02:01:15.283Z,1008.9
2016-06-30T02:02:15.275Z,1008.85
2016-06-30T02:03:16.074Z,1008.87
2016-06-30T02:04:15.268Z,1008.9
2016-06-30T02:05:15.266Z,1008.87
2016-06-30T02:06:15.259Z,1008.88
2016-06-30T02:07:15.259Z,1008.9
2016-06-30T02:08:15.256Z,1008.89
2016-06-30T02:09:16.215Z,1008.88
2016-06-30T02:10:15.251Z,1008.92
2016-06-30T02:11:15.404Z,1008.89
2016-06-30T02:12:15.242Z,1008.94
2016-06-30T02:13:15.249Z,1008.93
2016-06-30T02:14:15.234Z,1008.91
2016-06-30T02:15:15.233Z,1008.92
2016-06-30T02:16:15.232Z,1008.95
2016-06-30T02:17:15.229Z,1008.93
2016-06-30T02:18:15.227Z,1008.94
2016-06-30T02:19:15.224Z,1008.95
2016-06-30T02:20:15.213Z,1008.94
2016-06-30T02:21:15.219Z,1008.93
2016-06-30T02:22:15.211Z,1008.92
2016-06-30T02:23:15.212Z,1008.93
2016-06-30T02:24:15.203Z,1008.95
2016-06-30T02:25:15.202Z,1008.92
2016-06-30T02:26:15.199Z,1008.89
2016-06-30T02:27:15.199Z,1008.93
2016-06-30T02:28:15.222Z,1008.92
2016-06-30T02:29:15.189Z,1008.93
2016-06-30T02:30:15.187Z,1008.93
2016-06-30T02:31:15.185Z,1008.94
2016-06-30T02:32:15.224Z,1008.96
2016-06-30T02:33:15.191Z,1008.97
2016-06-30T02:34:15.177Z,1008.94
2016-06-30T02:35:15.170Z,1008.96
2016-06-30T02:36:15.167Z,1008.96
2016-06-30T02:37:15.165Z,1008.98
2016-06-30T02:38:15.161Z,1008.96
2016-06-30T02:39:15.157Z,1008.98
2016-06-30T02:40:15.157Z,1008.95
2016-06-30T02:41:15.148Z,1008.95
2016-06-30T02:42:15.151Z,1008.95
2016-06-30T02:43:15.144Z,1008.97
2016-06-30T02:44:15.851Z,1008.97
2016-06-30T02:45:15.163Z,1008.97
2016-06-30T02:46:16.565Z,1008.95
2016-06-30T02:47:15.135Z,1008.95
2016-06-30T02:48:15.125Z,1008.95
2016-06-30T02:49:15.127Z,1008.97
2016-06-30T02:50:15.136Z,1008.94
2016-06-30T02:51:15.116Z,1008.92
2016-06-30T02:52:15.118Z,1008.94
2016-06-30T02:54:15.106Z,1008.92
2016-06-30T02:55:15.104Z,1008.91
2016-06-30T02:56:15.100Z,1008.91
2016-06-30T02:57:15.104Z,1008.94
2016-06-30T02:58:15.634Z,1008.98
2016-06-30T02:59:15.092Z,1008.96
2016-06-30T03:00:15.091Z,1008.93
2016-06-30T03:01:15.082Z,1008.95
2016-06-30T03:02:15.080Z,1008.93
2016-06-30T03:03:15.080Z,1008.92
2016-06-30T03:04:15.076Z,1008.93
2016-06-30T03:05:15.074Z,1008.93
2016-06-30T03:06:15.066Z,1008.95
2016-06-30T03:07:15.070Z,1008.93
2016-06-30T03:08:15.059Z,1008.93
2016-06-30T03:09:15.057Z,1008.88
2016-06-30T03:10:15.058Z,1008.93
2016-06-30T03:11:15.051Z,1008.91
2016-06-30T03:12:15.047Z,1008.89
2016-06-30T03:13:15.046Z,1008.91
2016-06-30T03:14:15.043Z,1008.92
2016-06-30T03:15:15.035Z,1008.91
2016-06-30T03:16:15.031Z,1008.93
2016-06-30T03:17:15.026Z,1008.89
2016-06-30T03:18:15.028Z,1008.91
2016-06-30T03:19:15.924Z,1008.86
2016-06-30T03:20:15.325Z,1008.9
2016-06-30T03:22:15.073Z,1008.89
2016-06-30T03:23:15.068Z,1008.87
2016-06-30T03:24:15.014Z,1008.83
2016-06-30T03:25:15.257Z,1008.83
2016-06-30T03:26:15.003Z,1008.87
2016-06-30T03:27:15.003Z,1008.87
2016-06-30T03:28:15.002Z,1008.86
2016-06-30T03:29:15.001Z,1008.86
2016-06-30T03:30:15.020Z,1008.87
2016-06-30T03:31:14.988Z,1008.88
2016-06-30T03:32:14.985Z,1008.88
2016-06-30T03:33:14.984Z,1008.87
2016-06-30T03:34:14.979Z,1008.84
2016-06-30T03:35:14.991Z,1008.86
2016-06-30T03:36:14.974Z,1008.85
2016-06-30T03:37:14.972Z,1008.84
2016-06-30T03:38:14.973Z,1008.88
2016-06-30T03:39:14.970Z,1008.92
2016-06-30T03:40:14.964Z,1008.88
2016-06-30T03:41:14.961Z,1008.89
2016-06-30T03:42:14.958Z,1008.92
2016-06-30T03:43:14.961Z,1008.95
2016-06-30T03:44:14.957Z,1008.91
2016-06-30T03:45:14.954Z,1008.94
2016-06-30T03:46:14.945Z,1008.93
2016-06-30T03:47:14.953Z,1008.97
2016-06-30T03:48:14.943Z,1008.96
2016-06-30T03:49:14.938Z,1008.97
2016-06-30T03:50:14.940Z,1009
2016-06-30T03:51:14.935Z,1009.04
2016-06-30T03:52:14.931Z,1009.09
2016-06-30T03:53:14.931Z,1009.08
2016-06-30T03:54:14.929Z,1009.16
2016-06-30T03:55:14.928Z,1009.19
2016-06-30T03:56:14.923Z,1009.13
2016-06-30T03:57:14.921Z,1009.14
2016-06-30T03:58:14.923Z,1009.22
2016-06-30T03:59:14.916Z,1009.25
2016-06-30T04:00:14.920Z,1009.24
2016-06-30T04:01:14.913Z,1009.23
2016-06-30T04:02:15.817Z,1009.25
2016-06-30T04:04:14.911Z,1009.25
2016-06-30T04:05:14.914Z,1009.22
2016-06-30T04:06:14.911Z,1009.2
2016-06-30T04:07:14.935Z,1009.19
2016-06-30T04:08:14.918Z,1009.21
2016-06-30T04:09:14.914Z,1009.24
2016-06-30T04:10:14.915Z,1009.24
2016-06-30T04:11:16.415Z,1009.25
2016-06-30T04:12:14.917Z,1009.21
2016-06-30T04:13:16.487Z,1009.18
2016-06-30T04:14:14.923Z,1009.17
2016-06-30T04:15:14.918Z,1009.1
2016-06-30T04:16:14.925Z,1009.16
2016-06-30T04:17:14.934Z,1009.12
2016-06-30T04:18:14.930Z,1009.19
2016-06-30T04:19:14.936Z,1009.18
2016-06-30T04:20:14.938Z,1009.18
2016-06-30T04:21:14.939Z,1009.14
2016-06-30T04:22:14.948Z,1009.17
2016-06-30T04:23:14.947Z,1009.17
2016-06-30T04:24:14.953Z,1009.13
2016-06-30T04:25:14.971Z,1009.13
2016-06-30T04:26:14.966Z,1009.23
2016-06-30T04:27:14.968Z,1009.18
2016-06-30T04:28:14.966Z,1009.18
2016-06-30T04:29:15.005Z,1009.23
2016-06-30T04:30:14.974Z,1009.25
2016-06-30T04:31:14.984Z,1009.31
2016-06-30T04:32:14.987Z,1009.31
2016-06-30T04:33:14.993Z,1009.29
2016-06-30T04:34:15.006Z,1009.27
2016-06-30T04:35:14.999Z,1009.26
2016-06-30T04:36:15.011Z,1009.2
2016-06-30T04:37:15.017Z,1009.25
2016-06-30T04:38:15.020Z,1009.21
2016-06-30T04:39:15.174Z,1009.23
2016-06-30T04:40:15.038Z,1009.22
2016-06-30T04:41:15.040Z,1009.24
2016-06-30T04:42:15.047Z,1009.21
2016-06-30T04:43:15.106Z,1009.2
2016-06-30T04:44:15.060Z,1009.22
2016-06-30T04:45:15.066Z,1009.19
2016-06-30T04:46:15.070Z,1009.15
2016-06-30T04:47:15.834Z,1009.18
2016-06-30T04:48:15.093Z,1009.22
2016-06-30T04:49:15.099Z,1009.25
2016-06-30T04:50:15.104Z,1009.26
2016-06-30T04:51:15.114Z,1009.25
2016-06-30T04:52:15.119Z,1009.24
2016-06-30T04:53:15.133Z,1009.22
2016-06-30T04:54:15.135Z,1009.26
2016-06-30T04:55:15.160Z,1009.21
2016-06-30T04:56:15.153Z,1009.17
2016-06-30T04:57:15.166Z,1009.13
2016-06-30T04:58:15.166Z,1009.14
2016-06-30T04:59:15.187Z,1009.1
2016-06-30T05:00:15.187Z,1009.14
2016-06-30T05:01:15.199Z,1009.11
2016-06-30T05:02:15.212Z,1009.15
2016-06-30T05:03:15.214Z,1009.16
2016-06-30T05:04:15.228Z,1009.15
2016-06-30T05:05:15.287Z,1009.13
2016-06-30T05:06:15.251Z,1009.12
2016-06-30T05:07:15.252Z,1009.14
2016-06-30T05:08:15.267Z,1009.17
2016-06-30T05:09:15.273Z,1009.16
2016-06-30T05:10:15.283Z,1009.17
2016-06-30T05:11:15.290Z,1009.16
2016-06-30T05:12:15.298Z,1009.16
2016-06-30T05:13:15.308Z,1009.18
2016-06-30T05:14:15.315Z,1009.17
2016-06-30T05:15:15.331Z,1009.17
2016-06-30T05:16:15.337Z,1009.22
2016-06-30T05:17:15.344Z,1009.23
2016-06-30T05:18:15.354Z,1009.23
2016-06-30T05:19:15.362Z,1009.26
2016-06-30T05:20:15.370Z,1009.26
2016-06-30T05:21:15.385Z,1009.23
2016-06-30T05:22:16.821Z,1009.31
2016-06-30T05:23:15.406Z,1009.29
2016-06-30T05:24:15.414Z,1009.37
2016-06-30T05:25:15.426Z,1009.28
2016-06-30T05:26:15.513Z,1009.28
2016-06-30T05:27:15.449Z,1009.3
2016-06-30T05:28:15.455Z,1009.27
2016-06-30T05:29:15.472Z,1009.26
2016-06-30T05:30:15.479Z,1009.24
2016-06-30T05:31:15.489Z,1009.26
2016-06-30T05:32:15.689Z,1009.25
2016-06-30T05:33:15.515Z,1009.21
2016-06-30T05:34:15.520Z,1009.2
2016-06-30T05:35:15.944Z,1009.22
2016-06-30T05:36:15.552Z,1009.22
2016-06-30T05:37:15.579Z,1009.18
2016-06-30T05:38:15.575Z,1009.19
2016-06-30T05:39:15.577Z,1009.25
2016-06-30T05:40:15.603Z,1009.3
2016-06-30T05:41:15.598Z,1009.33
2016-06-30T05:42:15.638Z,1009.37
2016-06-30T05:43:15.627Z,1009.41
2016-06-30T05:44:15.650Z,1009.41
2016-06-30T05:45:15.650Z,1009.5
2016-06-30T05:46:15.664Z,1009.46
2016-06-30T05:47:15.677Z,1009.6
2016-06-30T05:48:15.691Z,1009.62
2016-06-30T05:49:15.703Z,1009.61
2016-06-30T05:50:15.714Z,1009.66
2016-06-30T05:51:15.731Z,1009.61
2016-06-30T05:52:15.742Z,1009.61
2016-06-30T05:53:15.756Z,1009.66
2016-06-30T05:54:15.779Z,1009.69
2016-06-30T05:55:15.786Z,1009.62
2016-06-30T05:57:15.818Z,1009.57
2016-06-30T05:58:15.832Z,1009.61
2016-06-30T05:59:16.047Z,1009.64
2016-06-30T06:00:15.862Z,1009.62
2016-06-30T06:01:15.875Z,1009.61
2016-06-30T06:02:15.891Z,1009.57
2016-06-30T06:03:15.919Z,1009.58
2016-06-30T06:04:15.917Z,1009.59
2016-06-30T06:06:16.001Z,1009.53
2016-06-30T06:07:15.971Z,1009.57
2016-06-30T06:08:16.156Z,1009.63
2016-06-30T06:09:16.010Z,1009.59
2016-06-30T06:10:16.379Z,1009.62
2016-06-30T06:11:16.035Z,1009.59
2016-06-30T06:12:16.057Z,1009.65
2016-06-30T06:13:16.068Z,1009.56
2016-06-30T06:14:16.083Z,1009.6
2016-06-30T06:15:16.107Z,1009.6
2016-06-30T06:16:16.118Z,1009.59
2016-06-30T06:17:16.142Z,1009.61
2016-06-30T06:18:16.156Z,1009.62
2016-06-30T06:19:16.172Z,1009.62
2016-06-30T06:20:16.190Z,1009.63
2016-06-30T06:21:16.212Z,1009.62
2016-06-30T06:22:16.217Z,1009.57
2016-06-30T06:23:16.237Z,1009.6
2016-06-30T06:24:16.255Z,1009.55
2016-06-30T06:25:16.271Z,1009.57
2016-06-30T06:26:16.287Z,1009.49
2016-06-30T06:27:16.304Z,1009.49
2016-06-30T06:28:16.322Z,1009.48
2016-06-30T06:29:16.349Z,1009.47
2016-06-30T06:30:16.367Z,1009.46
2016-06-30T06:31:16.371Z,1009.53
2016-06-30T06:32:16.390Z,1009.63
2016-06-30T06:33:16.403Z,1009.6
2016-06-30T06:34:16.420Z,1009.63
2016-06-30T06:35:16.433Z,1009.6
2016-06-30T06:36:16.474Z,1009.74
2016-06-30T06:37:16.465Z,1009.65
2016-06-30T06:38:16.481Z,1009.47
2016-06-30T06:39:16.500Z,1009.59
2016-06-30T06:40:16.514Z,1009.66
2016-06-30T06:41:17.057Z,1009.63
2016-06-30T06:42:16.539Z,1009.58
2016-06-30T06:43:16.879Z,1009.55
2016-06-30T06:44:16.573Z,1009.47
2016-06-30T06:45:16.589Z,1009.53
2016-06-30T06:46:16.604Z,1009.65
2016-06-30T06:47:16.618Z,1009.66
2016-06-30T06:48:16.627Z,1009.63
2016-06-30T06:49:17.890Z,1009.59
2016-06-30T06:50:16.655Z,1009.59
2016-06-30T06:51:16.674Z,1009.61
2016-06-30T06:52:17.057Z,1009.42
2016-06-30T06:53:16.707Z,1009.41
2016-06-30T06:54:16.719Z,1009.65
2016-06-30T06:55:16.991Z,1009.6
2016-06-30T06:56:16.746Z,1009.67
2016-06-30T06:57:16.768Z,1009.6
2016-06-30T06:58:16.779Z,1009.61
2016-06-30T06:59:16.789Z,1009.65
2016-06-30T07:00:16.802Z,1009.68
2016-06-30T07:01:16.821Z,1009.67
2016-06-30T07:02:16.834Z,1009.67
2016-06-30T07:03:16.850Z,1009.66
2016-06-30T07:04:16.882Z,1009.79
2016-06-30T07:05:16.878Z,1009.79
2016-06-30T07:06:16.946Z,1009.7
2016-06-30T07:07:16.918Z,1009.77
2016-06-30T07:08:16.937Z,1009.8
2016-06-30T07:09:16.945Z,1009.77
2016-06-30T07:10:16.967Z,1009.82
2016-06-30T07:11:16.981Z,1009.82
2016-06-30T07:12:17.005Z,1009.86
2016-06-30T07:13:17.017Z,1009.9
2016-06-30T07:14:17.727Z,1009.91
2016-06-30T07:16:17.059Z,1009.89
2016-06-30T07:17:17.482Z,1009.89
2016-06-30T07:18:17.104Z,1009.88
2016-06-30T07:19:17.118Z,1009.84
2016-06-30T07:20:17.139Z,1009.84
2016-06-30T07:21:17.158Z,1009.84
2016-06-30T07:22:17.194Z,1009.93
2016-06-30T07:23:17.211Z,1009.95
2016-06-30T07:24:17.253Z,1009.94
2016-06-30T07:25:17.243Z,1009.92
2016-06-30T07:26:17.255Z,1009.98
2016-06-30T07:27:17.279Z,1010.03
2016-06-30T07:28:17.294Z,1010.07
2016-06-30T07:29:17.314Z,1010.17
2016-06-30T07:30:17.335Z,1010.21
2016-06-30T07:31:17.354Z,1010.25
2016-06-30T07:32:17.373Z,1010.32
2016-06-30T07:33:17.398Z,1010.38
2016-06-30T07:34:17.415Z,1010.44
2016-06-30T07:35:17.430Z,1010.47
2016-06-30T07:36:17.453Z,1010.43
2016-06-30T07:37:17.475Z,1010.37
2016-06-30T07:38:17.495Z,1010.29
2016-06-30T07:39:17.517Z,1010.2
2016-06-30T07:40:17.537Z,1010.18
2016-06-30T07:41:17.553Z,1010.15
2016-06-30T07:42:17.575Z,1010.22
2016-06-30T07:43:17.593Z,1010.28
2016-06-30T07:44:17.611Z,1010.23
2016-06-30T07:45:17.640Z,1010.16
2016-06-30T07:46:17.656Z,1010.14
2016-06-30T07:47:17.675Z,1010.16
2016-06-30T07:48:17.699Z,1010.17
2016-06-30T07:49:17.718Z,1010.15
2016-06-30T07:50:17.744Z,1010.15
2016-06-30T07:51:17.757Z,1010.13
2016-06-30T07:52:17.775Z,1010.13
2016-06-30T07:53:17.794Z,1010.12
2016-06-30T07:54:17.810Z,1010.14
2016-06-30T07:55:17.839Z,1010.24
2016-06-30T07:56:17.852Z,1010.34
2016-06-30T07:57:17.874Z,1010.44
2016-06-30T07:58:17.996Z,1010.63
2016-06-30T07:59:17.907Z,1010.79
2016-06-30T08:00:17.930Z,1011.02
2016-06-30T08:01:17.945Z,1010.99
2016-06-30T08:02:18.629Z,1010.92
2016-06-30T08:03:18.000Z,1011.01
2016-06-30T08:04:18.006Z,1011.07
2016-06-30T08:05:18.033Z,1011.05
2016-06-30T08:06:18.386Z,1011.04
2016-06-30T08:07:18.062Z,1011.02
2016-06-30T08:08:18.085Z,1011.14
2016-06-30T08:09:18.100Z,1011.17
2016-06-30T08:10:18.118Z,1011.15
2016-06-30T08:11:18.139Z,1011.17
2016-06-30T08:12:18.159Z,1011.21
2016-06-30T08:13:18.182Z,1011.31
2016-06-30T08:14:18.203Z,1011.31
2016-06-30T08:15:18.210Z,1011.3
2016-06-30T08:16:18.230Z,1011.39
2016-06-30T08:17:18.249Z,1011.15
2016-06-30T08:18:18.269Z,1010.7
2016-06-30T08:19:18.295Z,1011.13
2016-06-30T08:20:18.316Z,1011.55
2016-06-30T08:21:18.325Z,1011.28
2016-06-30T08:22:18.347Z,1011.35
2016-06-30T08:23:18.411Z,1011.39
2016-06-30T08:24:18.399Z,1011.3
2016-06-30T08:25:18.405Z,1011.14
2016-06-30T08:26:18.447Z,1011.22
2016-06-30T08:27:18.449Z,1011.26
2016-06-30T08:28:18.470Z,1011.07
2016-06-30T08:29:18.489Z,1011.03
2016-06-30T08:30:18.510Z,1010.89
2016-06-30T08:31:18.530Z,1010.79
2016-06-30T08:32:18.550Z,1010.88
2016-06-30T08:33:18.575Z,1010.48
2016-06-30T08:34:18.599Z,1010.18
2016-06-30T08:35:18.613Z,1010.42
2016-06-30T08:36:18.637Z,1010.31
2016-06-30T08:37:18.657Z,1010.19
2016-06-30T08:38:18.673Z,1010.23
2016-06-30T08:39:18.692Z,1010.49
2016-06-30T08:40:18.714Z,1010.41
2016-06-30T08:41:18.887Z,1010.25
2016-06-30T08:42:18.757Z,1010.26
2016-06-30T08:43:19.774Z,1010.16
2016-06-30T08:44:18.790Z,1010.24
2016-06-30T08:45:18.813Z,1010.26
2016-06-30T08:46:18.826Z,1010.23
2016-06-30T08:47:18.846Z,1010.3
2016-06-30T08:48:18.866Z,1010.3
2016-06-30T08:49:18.878Z,1010.27
2016-06-30T08:50:18.911Z,1010.37
2016-06-30T08:51:18.918Z,1010.32
2016-06-30T08:52:18.942Z,1010.27
2016-06-30T08:53:18.964Z,1010.22
2016-06-30T08:54:18.966Z,1010.17
2016-06-30T08:55:18.997Z,1010.19
2016-06-30T08:56:19.004Z,1010.2
2016-06-30T08:57:19.019Z,1010.16
2016-06-30T08:58:19.045Z,1010.26
2016-06-30T08:59:19.054Z,1010.23
2016-06-30T09:00:19.066Z,1010.23
2016-06-30T09:01:19.081Z,1010.24
2016-06-30T09:02:19.099Z,1010.26
2016-06-30T09:03:19.109Z,1010.27
2016-06-30T09:04:19.125Z,1010.29
2016-06-30T09:05:19.144Z,1010.22
2016-06-30T09:06:19.198Z,1010.21
2016-06-30T09:07:19.164Z,1010.2
2016-06-30T09:08:19.187Z,1010.15
2016-06-30T09:09:19.196Z,1010.08
2016-06-30T09:10:19.211Z,1010.13
2016-06-30T09:11:19.222Z,1010.15
2016-06-30T09:12:19.236Z,1010.23
2016-06-30T09:13:19.250Z,1010.22
2016-06-30T09:14:19.268Z,1010.28
2016-06-30T09:15:19.271Z,1010.34
2016-06-30T09:17:19.302Z,1010.24
2016-06-30T09:18:19.308Z,1010.25
2016-06-30T09:19:19.327Z,1010.23
2016-06-30T09:20:19.333Z,1010.28
2016-06-30T09:21:19.533Z,1010.27
2016-06-30T09:22:19.362Z,1010.24
2016-06-30T09:23:19.383Z,1010.23
2016-06-30T09:24:19.389Z,1010.24
2016-06-30T09:25:19.397Z,1010.24
2016-06-30T09:26:19.758Z,1010.23
2016-06-30T09:27:19.421Z,1010.24
2016-06-30T09:28:19.430Z,1010.17
2016-06-30T09:29:19.449Z,1010.2
2016-06-30T09:30:19.458Z,1010.22
2016-06-30T09:31:19.474Z,1010.13
2016-06-30T09:32:19.484Z,1010.14
2016-06-30T09:33:19.499Z,1010.1
2016-06-30T09:34:19.507Z,1010.17
2016-06-30T09:35:19.519Z,1010.18
2016-06-30T09:36:19.528Z,1010.21
2016-06-30T09:37:19.537Z,1010.22
2016-06-30T09:38:19.553Z,1010.25
2016-06-30T09:39:19.569Z,1010.11
2016-06-30T09:40:19.573Z,1010.05
2016-06-30T09:41:19.590Z,1010.02
2016-06-30T09:42:19.606Z,1010.07
2016-06-30T09:43:19.612Z,1010.08
2016-06-30T09:44:19.623Z,1010.12
2016-06-30T09:45:19.634Z,1010.15
2016-06-30T09:46:19.646Z,1010.16
2016-06-30T09:47:19.659Z,1010.21
2016-06-30T09:48:19.667Z,1010.16
2016-06-30T09:49:19.679Z,1010.18
2016-06-30T09:50:20.088Z,1010.25
2016-06-30T09:51:19.704Z,1010.25
2016-06-30T09:52:19.717Z,1010.22
2016-06-30T09:53:19.722Z,1010.19
2016-06-30T09:54:19.751Z,1010.21
2016-06-30T09:55:19.748Z,1010.2
2016-06-30T09:56:19.766Z,1010.21
2016-06-30T09:57:20.121Z,1010.24
2016-06-30T09:58:19.931Z,1010.22
2016-06-30T09:59:19.795Z,1010.2
2016-06-30T10:00:19.807Z,1010.23
2016-06-30T10:01:19.810Z,1010.21
2016-06-30T10:02:19.831Z,1010.23
2016-06-30T10:03:19.839Z,1010.23
2016-06-30T10:04:19.863Z,1010.3
2016-06-30T10:05:19.875Z,1010.26
2016-06-30T10:06:19.874Z,1010.29
2016-06-30T10:07:19.883Z,1010.24
2016-06-30T10:08:19.902Z,1010.24
2016-06-30T10:09:19.902Z,1010.29
2016-06-30T10:10:19.909Z,1010.33
2016-06-30T10:11:19.923Z,1010.28
2016-06-30T10:12:19.937Z,1010.28
2016-06-30T10:13:19.944Z,1010.3
2016-06-30T10:14:19.961Z,1010.24
2016-06-30T10:15:19.971Z,1010.31
2016-06-30T10:16:19.981Z,1010.31
2016-06-30T10:17:19.991Z,1010.28
2016-06-30T10:18:19.998Z,1010.28
2016-06-30T10:19:20.013Z,1010.33
2016-06-30T10:20:20.021Z,1010.35
2016-06-30T10:21:20.031Z,1010.37
2016-06-30T10:22:20.044Z,1010.35
2016-06-30T10:23:20.058Z,1010.29
2016-06-30T10:24:20.067Z,1010.22
2016-06-30T10:25:20.074Z,1010.19
2016-06-30T10:26:20.086Z,1010.26
2016-06-30T10:27:20.101Z,1010.31
2016-06-30T10:28:20.111Z,1010.32
2016-06-30T10:29:20.119Z,1010.33
2016-06-30T10:30:20.134Z,1010.26
2016-06-30T10:31:20.144Z,1010.21
2016-06-30T10:32:20.155Z,1010.13
2016-06-30T10:33:20.170Z,1010.15
2016-06-30T10:34:20.174Z,1010.11
2016-06-30T10:35:20.186Z,1010.18
2016-06-30T10:36:20.194Z,1010.17
2016-06-30T10:37:20.207Z,1010.12
2016-06-30T10:38:20.618Z,1010.23
2016-06-30T10:39:20.226Z,1010.27
2016-06-30T10:40:20.238Z,1010.26
2016-06-30T10:41:20.251Z,1010.29
2016-06-30T10:42:20.257Z,1010.26
2016-06-30T10:43:20.889Z,1010.28
2016-06-30T10:44:20.278Z,1010.24
2016-06-30T10:45:20.294Z,1010.25
2016-06-30T10:46:20.310Z,1010.28
2016-06-30T10:47:21.095Z,1010.24
2016-06-30T10:48:20.457Z,1010.23
2016-06-30T10:49:20.332Z,1010.23
2016-06-30T10:50:20.348Z,1010.25
2016-06-30T10:51:20.349Z,1010.3
2016-06-30T10:52:20.362Z,1010.32
2016-06-30T10:53:20.386Z,1010.32
2016-06-30T10:54:20.382Z,1010.34
2016-06-30T10:55:20.393Z,1010.31
2016-06-30T10:56:20.402Z,1010.26
2016-06-30T10:57:20.413Z,1010.26
2016-06-30T10:58:20.427Z,1010.26
2016-06-30T10:59:20.440Z,1010.22
2016-06-30T11:00:20.443Z,1010.2
2016-06-30T11:01:20.456Z,1010.21
2016-06-30T11:02:20.470Z,1010.14
2016-06-30T11:03:20.474Z,1010.23
2016-06-30T11:04:20.491Z,1010.28
2016-06-30T11:05:20.498Z,1010.34
2016-06-30T11:06:20.553Z,1010.4
2016-06-30T11:07:20.516Z,1010.43
2016-06-30T11:08:20.542Z,1010.5
2016-06-30T11:09:20.532Z,1010.48
2016-06-30T11:10:20.549Z,1010.51
2016-06-30T11:11:20.958Z,1010.48
2016-06-30T11:12:20.567Z,1010.47
2016-06-30T11:13:20.877Z,1010.43
2016-06-30T11:14:20.587Z,1010.38
2016-06-30T11:15:20.595Z,1010.37
2016-06-30T11:16:20.610Z,1010.38
2016-06-30T11:17:20.622Z,1010.35
2016-06-30T11:18:21.026Z,1010.35
2016-06-30T11:19:20.638Z,1010.37
2016-06-30T11:20:20.645Z,1010.4
2016-06-30T11:21:20.660Z,1010.41
2016-06-30T11:22:20.665Z,1010.44
2016-06-30T11:23:20.678Z,1010.49
2016-06-30T11:24:20.691Z,1010.49
2016-06-30T11:25:20.698Z,1010.42
2016-06-30T11:26:20.711Z,1010.47
2016-06-30T11:27:20.727Z,1010.47
2016-06-30T11:28:20.730Z,1010.52
2016-06-30T11:29:20.740Z,1010.5
2016-06-30T11:30:20.747Z,1010.49
2016-06-30T11:31:20.762Z,1010.46
2016-06-30T11:32:20.774Z,1010.5
2016-06-30T11:33:20.781Z,1010.49
2016-06-30T11:34:20.786Z,1010.52
2016-06-30T11:35:20.800Z,1010.47
2016-06-30T11:36:20.806Z,1010.54
2016-06-30T11:37:20.821Z,1010.51
2016-06-30T11:38:20.832Z,1010.52
2016-06-30T11:39:20.853Z,1010.5
2016-06-30T11:40:20.854Z,1010.45
2016-06-30T11:41:20.864Z,1010.49
2016-06-30T11:42:20.870Z,1010.49
2016-06-30T11:43:20.903Z,1010.58
2016-06-30T11:44:20.899Z,1010.47
2016-06-30T11:45:20.907Z,1010.46
2016-06-30T11:46:20.914Z,1010.42
2016-06-30T11:47:20.930Z,1010.48
2016-06-30T11:48:20.939Z,1010.45
2016-06-30T11:49:20.948Z,1010.36
2016-06-30T11:50:20.963Z,1010.27
2016-06-30T11:51:20.963Z,1010.24
2016-06-30T11:52:20.975Z,1010.31
2016-06-30T11:53:20.983Z,1010.31
2016-06-30T11:54:20.998Z,1010.37
2016-06-30T11:55:21.006Z,1010.4
2016-06-30T11:56:21.019Z,1010.44
2016-06-30T11:57:21.028Z,1010.38
2016-06-30T11:58:21.056Z,1010.32
2016-06-30T11:59:21.048Z,1010.21
2016-06-30T12:00:21.063Z,1010.31
2016-06-30T12:01:21.070Z,1010.38
2016-06-30T12:02:21.210Z,1010.28
2016-06-30T12:03:22.058Z,1010.23
2016-06-30T12:04:21.106Z,1010.28
2016-06-30T12:05:21.109Z,1010.28
2016-06-30T12:06:21.118Z,1010.41
2016-06-30T12:07:21.130Z,1010.36
2016-06-30T12:08:21.289Z,1010.3
2016-06-30T12:09:21.154Z,1010.41
2016-06-30T12:10:21.163Z,1010.39
2016-06-30T12:11:21.172Z,1010.25
2016-06-30T12:12:21.186Z,1010.21
2016-06-30T12:13:21.215Z,1010.29
2016-06-30T12:14:21.200Z,1010.37
2016-06-30T12:15:21.215Z,1010.23